sensor_id;sensor_type;location;lat;lon;timestamp;temperature;humidity
32366;DHT22;18837;46.832;16.838;2023-04-15T00:00:42;8.50;93.20
32366;DHT22;18837;46.832;16.838;2023-04-15T00:03:07;8.50;93.30
32366;DHT22;18837;46.832;16.838;2023-04-15T00:05:33;8.50;93.30
32366;DHT22;18837;46.832;16.838;2023-04-15T00:07:59;8.50;93.40
32366;DHT22;18837;46.832;16.838;2023-04-15T00:10:26;8.50;93.30
32366;DHT22;18837;46.832;16.838;2023-04-15T00:12:52;8.50;93.30
32366;DHT22;18837;46.832;16.838;2023-04-15T00:15:18;8.50;93.30
32366;DHT22;18837;46.832;16.838;2023-04-15T00:17:44;8.50;93.20
32366;DHT22;18837;46.832;16.838;2023-04-15T00:20:10;8.50;93.70
32366;DHT22;18837;46.832;16.838;2023-04-15T00:22:37;8.50;93.50
32366;DHT22;18837;46.832;16.838;2023-04-15T00:25:05;8.50;93.40
32366;DHT22;18837;46.832;16.838;2023-04-15T00:27:31;8.50;93.50
32366;DHT22;18837;46.832;16.838;2023-04-15T00:29:57;8.50;93.30
32366;DHT22;18837;46.832;16.838;2023-04-15T00:32:22;8.50;93.40
32366;DHT22;18837;46.832;16.838;2023-04-15T00:34:48;8.50;93.30
32366;DHT22;18837;46.832;16.838;2023-04-15T00:37:14;8.50;93.40
32366;DHT22;18837;46.832;16.838;2023-04-15T00:39:40;8.50;93.40
32366;DHT22;18837;46.832;16.838;2023-04-15T00:42:09;8.50;94.10
32366;DHT22;18837;46.832;16.838;2023-04-15T00:44:35;8.40;93.20
32366;DHT22;18837;46.832;16.838;2023-04-15T00:47:01;8.50;93.40
32366;DHT22;18837;46.832;16.838;2023-04-15T00:49:28;8.40;93.30
32366;DHT22;18837;46.832;16.838;2023-04-15T00:51:54;8.40;93.40
32366;DHT22;18837;46.832;16.838;2023-04-15T00:54:20;8.40;93.40
32366;DHT22;18837;46.832;16.838;2023-04-15T00:56:46;8.40;93.30
32366;DHT22;18837;46.832;16.838;2023-04-15T00:59:21;8.40;93.40
32366;DHT22;18837;46.832;16.838;2023-04-15T01:01:47;8.40;94.50
32366;DHT22;18837;46.832;16.838;2023-04-15T01:04:14;8.40;93.40
32366;DHT22;18837;46.832;16.838;2023-04-15T01:06:40;8.40;93.50
32366;DHT22;18837;46.832;16.838;2023-04-15T01:09:06;8.40;93.30
32366;DHT22;18837;46.832;16.838;2023-04-15T01:11:32;8.40;93.30
32366;DHT22;18837;46.832;16.838;2023-04-15T01:14:01;8.40;93.50
32366;DHT22;18837;46.832;16.838;2023-04-15T01:16:27;8.40;93.30
32366;DHT22;18837;46.832;16.838;2023-04-15T01:18:54;8.40;93.30
32366;DHT22;18837;46.832;16.838;2023-04-15T01:21:20;8.40;93.20
32366;DHT22;18837;46.832;16.838;2023-04-15T01:23:46;8.40;93.40
32366;DHT22;18837;46.832;16.838;2023-04-15T01:26:13;8.40;93.30
32366;DHT22;18837;46.832;16.838;2023-04-15T01:28:39;8.40;93.30
32366;DHT22;18837;46.832;16.838;2023-04-15T01:31:07;8.40;93.30
32366;DHT22;18837;46.832;16.838;2023-04-15T01:33:34;8.40;93.30
32366;DHT22;18837;46.832;16.838;2023-04-15T01:36:04;8.40;93.40
32366;DHT22;18837;46.832;16.838;2023-04-15T01:38:31;8.40;93.70
32366;DHT22;18837;46.832;16.838;2023-04-15T01:40:57;8.40;93.40
32366;DHT22;18837;46.832;16.838;2023-04-15T01:43:24;8.40;93.40
32366;DHT22;18837;46.832;16.838;2023-04-15T01:45:50;8.40;93.30
32366;DHT22;18837;46.832;16.838;2023-04-15T01:48:16;8.40;93.40
32366;DHT22;18837;46.832;16.838;2023-04-15T01:50:42;8.40;93.40
32366;DHT22;18837;46.832;16.838;2023-04-15T01:53:08;8.40;93.40
32366;DHT22;18837;46.832;16.838;2023-04-15T01:55:34;8.40;93.40
32366;DHT22;18837;46.832;16.838;2023-04-15T01:58:00;8.40;93.70
32366;DHT22;18837;46.832;16.838;2023-04-15T02:00:26;8.40;93.70
32366;DHT22;18837;46.832;16.838;2023-04-15T02:02:51;8.40;93.50
32366;DHT22;18837;46.832;16.838;2023-04-15T02:05:17;8.40;93.50
32366;DHT22;18837;46.832;16.838;2023-04-15T02:07:48;8.40;93.50
32366;DHT22;18837;46.832;16.838;2023-04-15T02:10:15;8.40;93.50
32366;DHT22;18837;46.832;16.838;2023-04-15T02:12:41;8.40;93.40
32366;DHT22;18837;46.832;16.838;2023-04-15T02:15:08;8.40;93.50
32366;DHT22;18837;46.832;16.838;2023-04-15T02:17:35;8.40;93.60
32366;DHT22;18837;46.832;16.838;2023-04-15T02:20:01;8.40;93.30
32366;DHT22;18837;46.832;16.838;2023-04-15T02:22:26;8.40;93.40
32366;DHT22;18837;46.832;16.838;2023-04-15T02:24:55;8.40;93.40
32366;DHT22;18837;46.832;16.838;2023-04-15T02:27:21;8.40;93.90
32366;DHT22;18837;46.832;16.838;2023-04-15T02:29:47;8.40;93.60
32366;DHT22;18837;46.832;16.838;2023-04-15T02:32:15;8.40;93.50
32366;DHT22;18837;46.832;16.838;2023-04-15T02:34:41;8.40;93.60
32366;DHT22;18837;46.832;16.838;2023-04-15T02:37:08;8.40;93.50
32366;DHT22;18837;46.832;16.838;2023-04-15T02:39:34;8.40;93.50
32366;DHT22;18837;46.832;16.838;2023-04-15T02:42:01;8.40;93.50
32366;DHT22;18837;46.832;16.838;2023-04-15T02:44:30;8.40;93.70
32366;DHT22;18837;46.832;16.838;2023-04-15T02:46:57;8.40;93.40
32366;DHT22;18837;46.832;16.838;2023-04-15T02:49:24;8.40;93.40
32366;DHT22;18837;46.832;16.838;2023-04-15T02:51:50;8.40;93.50
32366;DHT22;18837;46.832;16.838;2023-04-15T02:54:19;8.40;93.60
32366;DHT22;18837;46.832;16.838;2023-04-15T02:56:45;8.40;93.40
32366;DHT22;18837;46.832;16.838;2023-04-15T02:59:11;8.40;93.50
32366;DHT22;18837;46.832;16.838;2023-04-15T03:01:37;8.40;93.50
32366;DHT22;18837;46.832;16.838;2023-04-15T03:04:03;8.40;93.60
32366;DHT22;18837;46.832;16.838;2023-04-15T03:06:30;8.30;94.00
32366;DHT22;18837;46.832;16.838;2023-04-15T03:08:56;8.40;93.70
32366;DHT22;18837;46.832;16.838;2023-04-15T03:11:21;8.40;93.60
32366;DHT22;18837;46.832;16.838;2023-04-15T03:13:47;8.40;93.60
32366;DHT22;18837;46.832;16.838;2023-04-15T03:16:19;8.30;93.50
32366;DHT22;18837;46.832;16.838;2023-04-15T03:18:45;8.30;93.60
32366;DHT22;18837;46.832;16.838;2023-04-15T03:21:11;8.30;93.80
32366;DHT22;18837;46.832;16.838;2023-04-15T03:23:37;8.30;93.50
32366;DHT22;18837;46.832;16.838;2023-04-15T03:26:03;8.30;93.50
32366;DHT22;18837;46.832;16.838;2023-04-15T03:28:30;8.30;93.60
32366;DHT22;18837;46.832;16.838;2023-04-15T03:30:57;8.30;93.50
32366;DHT22;18837;46.832;16.838;2023-04-15T03:33:23;8.30;93.90
32366;DHT22;18837;46.832;16.838;2023-04-15T03:35:50;8.30;93.50
32366;DHT22;18837;46.832;16.838;2023-04-15T03:38:17;8.30;93.80
32366;DHT22;18837;46.832;16.838;2023-04-15T03:40:42;8.30;93.60
32366;DHT22;18837;46.832;16.838;2023-04-15T03:43:08;8.30;93.50
32366;DHT22;18837;46.832;16.838;2023-04-15T03:45:34;8.30;93.50
32366;DHT22;18837;46.832;16.838;2023-04-15T03:48:00;8.30;93.50
32366;DHT22;18837;46.832;16.838;2023-04-15T03:50:26;8.30;93.50
32366;DHT22;18837;46.832;16.838;2023-04-15T03:52:52;8.30;93.90
32366;DHT22;18837;46.832;16.838;2023-04-15T03:55:18;8.30;93.60
32366;DHT22;18837;46.832;16.838;2023-04-15T03:57:44;8.30;93.60
32366;DHT22;18837;46.832;16.838;2023-04-15T04:00:10;8.30;93.60
32366;DHT22;18837;46.832;16.838;2023-04-15T04:02:36;8.30;93.80
32366;DHT22;18837;46.832;16.838;2023-04-15T04:05:02;8.30;93.70
32366;DHT22;18837;46.832;16.838;2023-04-15T04:07:28;8.30;93.80
32366;DHT22;18837;46.832;16.838;2023-04-15T04:09:57;8.30;93.80
32366;DHT22;18837;46.832;16.838;2023-04-15T04:12:23;8.30;93.60
32366;DHT22;18837;46.832;16.838;2023-04-15T04:14:48;8.30;93.60
32366;DHT22;18837;46.832;16.838;2023-04-15T04:17:14;8.30;93.70
32366;DHT22;18837;46.832;16.838;2023-04-15T04:19:40;8.30;93.70
32366;DHT22;18837;46.832;16.838;2023-04-15T04:22:06;8.30;93.80
32366;DHT22;18837;46.832;16.838;2023-04-15T04:28:28;8.30;94.90
32366;DHT22;18837;46.832;16.838;2023-04-15T04:30:54;8.30;94.90
32366;DHT22;18837;46.832;16.838;2023-04-15T04:33:20;8.30;93.70
32366;DHT22;18837;46.832;16.838;2023-04-15T04:35:46;8.30;94.00
32366;DHT22;18837;46.832;16.838;2023-04-15T04:38:11;8.30;93.70
32366;DHT22;18837;46.832;16.838;2023-04-15T04:40:37;8.30;93.70
32366;DHT22;18837;46.832;16.838;2023-04-15T04:43:03;8.30;93.80
32366;DHT22;18837;46.832;16.838;2023-04-15T04:45:30;8.30;93.60
32366;DHT22;18837;46.832;16.838;2023-04-15T04:47:56;8.30;93.70
32366;DHT22;18837;46.832;16.838;2023-04-15T04:50:22;8.30;93.70
32366;DHT22;18837;46.832;16.838;2023-04-15T04:52:47;8.30;93.70
32366;DHT22;18837;46.832;16.838;2023-04-15T04:55:13;8.30;93.70
32366;DHT22;18837;46.832;16.838;2023-04-15T04:57:39;8.30;93.70
32366;DHT22;18837;46.832;16.838;2023-04-15T05:00:20;8.30;93.70
32366;DHT22;18837;46.832;16.838;2023-04-15T05:02:51;8.30;93.90
32366;DHT22;18837;46.832;16.838;2023-04-15T05:05:17;8.30;93.70
32366;DHT22;18837;46.832;16.838;2023-04-15T05:07:42;8.30;93.70
32366;DHT22;18837;46.832;16.838;2023-04-15T05:10:08;8.30;93.70
32366;DHT22;18837;46.832;16.838;2023-04-15T05:12:35;8.30;94.00
32366;DHT22;18837;46.832;16.838;2023-04-15T05:15:02;8.30;93.80
32366;DHT22;18837;46.832;16.838;2023-04-15T05:17:34;8.30;93.70
32366;DHT22;18837;46.832;16.838;2023-04-15T05:20:00;8.30;93.70
32366;DHT22;18837;46.832;16.838;2023-04-15T05:22:26;8.30;93.60
32366;DHT22;18837;46.832;16.838;2023-04-15T05:24:52;8.30;93.80
32366;DHT22;18837;46.832;16.838;2023-04-15T05:27:18;8.30;94.20
32366;DHT22;18837;46.832;16.838;2023-04-15T05:29:44;8.30;94.20
32366;DHT22;18837;46.832;16.838;2023-04-15T05:32:10;8.30;93.60
32366;DHT22;18837;46.832;16.838;2023-04-15T05:34:36;8.30;93.90
32366;DHT22;18837;46.832;16.838;2023-04-15T05:37:17;8.30;94.10
32366;DHT22;18837;46.832;16.838;2023-04-15T05:39:45;8.30;93.70
32366;DHT22;18837;46.832;16.838;2023-04-15T05:42:11;8.30;94.00
32366;DHT22;18837;46.832;16.838;2023-04-15T05:44:37;8.30;93.80
32366;DHT22;18837;46.832;16.838;2023-04-15T05:47:03;8.30;93.70
32366;DHT22;18837;46.832;16.838;2023-04-15T05:49:29;8.30;93.60
32366;DHT22;18837;46.832;16.838;2023-04-15T05:52:13;8.30;93.70
32366;DHT22;18837;46.832;16.838;2023-04-15T05:54:39;8.30;93.60
32366;DHT22;18837;46.832;16.838;2023-04-15T05:57:04;8.30;93.80
32366;DHT22;18837;46.832;16.838;2023-04-15T05:59:30;8.30;93.70
32366;DHT22;18837;46.832;16.838;2023-04-15T06:01:56;8.40;93.70
32366;DHT22;18837;46.832;16.838;2023-04-15T06:04:22;8.40;93.60
32366;DHT22;18837;46.832;16.838;2023-04-15T06:06:48;8.30;93.70
32366;DHT22;18837;46.832;16.838;2023-04-15T06:09:39;8.40;94.10
32366;DHT22;18837;46.832;16.838;2023-04-15T06:12:19;8.40;94.70
32366;DHT22;18837;46.832;16.838;2023-04-15T06:14:45;8.40;93.90
32366;DHT22;18837;46.832;16.838;2023-04-15T06:17:11;8.40;93.70
32366;DHT22;18837;46.832;16.838;2023-04-15T06:19:39;8.40;93.80
32366;DHT22;18837;46.832;16.838;2023-04-15T06:22:05;8.40;93.70
32366;DHT22;18837;46.832;16.838;2023-04-15T06:24:31;8.40;93.80
32366;DHT22;18837;46.832;16.838;2023-04-15T06:26:57;8.40;93.60
32366;DHT22;18837;46.832;16.838;2023-04-15T06:29:23;8.40;93.70
32366;DHT22;18837;46.832;16.838;2023-04-15T06:31:49;8.40;93.60
32366;DHT22;18837;46.832;16.838;2023-04-15T06:34:14;8.40;93.60
32366;DHT22;18837;46.832;16.838;2023-04-15T06:36:40;8.40;93.50
32366;DHT22;18837;46.832;16.838;2023-04-15T06:39:06;8.40;93.60
32366;DHT22;18837;46.832;16.838;2023-04-15T06:41:32;8.40;93.60
32366;DHT22;18837;46.832;16.838;2023-04-15T06:44:06;8.40;93.50
32366;DHT22;18837;46.832;16.838;2023-04-15T06:46:38;8.40;93.50
32366;DHT22;18837;46.832;16.838;2023-04-15T06:49:04;8.40;93.50
32366;DHT22;18837;46.832;16.838;2023-04-15T06:51:30;8.40;94.10
32366;DHT22;18837;46.832;16.838;2023-04-15T06:53:56;8.50;93.60
32366;DHT22;18837;46.832;16.838;2023-04-15T06:56:22;8.40;93.60
32366;DHT22;18837;46.832;16.838;2023-04-15T06:58:48;8.50;93.40
32366;DHT22;18837;46.832;16.838;2023-04-15T07:01:19;8.50;93.60
32366;DHT22;18837;46.832;16.838;2023-04-15T07:03:45;8.50;93.40
32366;DHT22;18837;46.832;16.838;2023-04-15T07:06:11;8.50;93.40
32366;DHT22;18837;46.832;16.838;2023-04-15T07:08:37;8.50;93.40
32366;DHT22;18837;46.832;16.838;2023-04-15T07:11:03;8.50;93.40
32366;DHT22;18837;46.832;16.838;2023-04-15T07:13:31;8.50;93.50
32366;DHT22;18837;46.832;16.838;2023-04-15T07:15:57;8.50;93.30
32366;DHT22;18837;46.832;16.838;2023-04-15T07:18:46;8.50;93.40
32366;DHT22;18837;46.832;16.838;2023-04-15T07:21:24;8.50;94.40
32366;DHT22;18837;46.832;16.838;2023-04-15T07:23:52;8.60;93.50
32366;DHT22;18837;46.832;16.838;2023-04-15T07:26:17;8.60;93.40
32366;DHT22;18837;46.832;16.838;2023-04-15T07:28:43;8.60;93.40
32366;DHT22;18837;46.832;16.838;2023-04-15T07:31:10;8.60;93.30
32366;DHT22;18837;46.832;16.838;2023-04-15T07:33:36;8.60;93.30
32366;DHT22;18837;46.832;16.838;2023-04-15T07:36:08;8.60;93.40
32366;DHT22;18837;46.832;16.838;2023-04-15T07:38:33;8.60;93.20
32366;DHT22;18837;46.832;16.838;2023-04-15T07:41:00;8.60;93.70
32366;DHT22;18837;46.832;16.838;2023-04-15T07:43:27;8.60;93.10
32366;DHT22;18837;46.832;16.838;2023-04-15T07:45:54;8.60;93.40
32366;DHT22;18837;46.832;16.838;2023-04-15T07:48:19;8.60;93.50
32366;DHT22;18837;46.832;16.838;2023-04-15T07:50:45;8.60;93.30
32366;DHT22;18837;46.832;16.838;2023-04-15T07:53:23;8.60;93.30
32366;DHT22;18837;46.832;16.838;2023-04-15T07:55:49;8.60;93.40
32366;DHT22;18837;46.832;16.838;2023-04-15T07:58:15;8.60;93.70
32366;DHT22;18837;46.832;16.838;2023-04-15T08:00:41;8.70;93.80
32366;DHT22;18837;46.832;16.838;2023-04-15T08:03:07;8.70;93.50
32366;DHT22;18837;46.832;16.838;2023-04-15T08:05:33;8.70;93.70
32366;DHT22;18837;46.832;16.838;2023-04-15T08:07:59;8.70;93.80
32366;DHT22;18837;46.832;16.838;2023-04-15T08:10:34;8.70;94.20
32366;DHT22;18837;46.832;16.838;2023-04-15T08:13:00;8.80;94.10
32366;DHT22;18837;46.832;16.838;2023-04-15T08:15:26;8.70;94.40
32366;DHT22;18837;46.832;16.838;2023-04-15T08:17:52;8.80;94.50
32366;DHT22;18837;46.832;16.838;2023-04-15T08:20:18;8.80;94.50
32366;DHT22;18837;46.832;16.838;2023-04-15T08:22:44;8.80;94.40
32366;DHT22;18837;46.832;16.838;2023-04-15T08:25:14;8.80;94.20
32366;DHT22;18837;46.832;16.838;2023-04-15T08:27:58;8.80;94.50
32366;DHT22;18837;46.832;16.838;2023-04-15T08:30:35;8.70;94.10
32366;DHT22;18837;46.832;16.838;2023-04-15T08:33:01;8.80;94.00
32366;DHT22;18837;46.832;16.838;2023-04-15T08:35:28;8.80;94.10
32366;DHT22;18837;46.832;16.838;2023-04-15T08:37:53;8.80;94.10
32366;DHT22;18837;46.832;16.838;2023-04-15T08:40:20;8.80;94.20
32366;DHT22;18837;46.832;16.838;2023-04-15T08:42:50;8.80;94.00
32366;DHT22;18837;46.832;16.838;2023-04-15T08:45:23;8.80;93.90
32366;DHT22;18837;46.832;16.838;2023-04-15T08:47:54;8.80;94.20
32366;DHT22;18837;46.832;16.838;2023-04-15T08:50:21;8.90;94.10
32366;DHT22;18837;46.832;16.838;2023-04-15T08:52:48;8.90;94.00
32366;DHT22;18837;46.832;16.838;2023-04-15T08:55:18;8.90;94.00
32366;DHT22;18837;46.832;16.838;2023-04-15T08:57:45;9.00;94.30
32366;DHT22;18837;46.832;16.838;2023-04-15T09:00:11;9.00;94.60
32366;DHT22;18837;46.832;16.838;2023-04-15T09:02:47;9.00;94.60
32366;DHT22;18837;46.832;16.838;2023-04-15T09:05:25;9.00;94.30
32366;DHT22;18837;46.832;16.838;2023-04-15T09:07:51;9.00;94.10
32366;DHT22;18837;46.832;16.838;2023-04-15T09:10:17;9.00;94.00
32366;DHT22;18837;46.832;16.838;2023-04-15T09:12:43;9.10;94.10
32366;DHT22;18837;46.832;16.838;2023-04-15T09:15:11;9.10;94.00
32366;DHT22;18837;46.832;16.838;2023-04-15T09:17:42;9.10;94.00
32366;DHT22;18837;46.832;16.838;2023-04-15T09:20:13;9.10;93.90
32366;DHT22;18837;46.832;16.838;2023-04-15T09:22:40;9.20;94.30
32366;DHT22;18837;46.832;16.838;2023-04-15T09:27:48;9.20;94.10
32366;DHT22;18837;46.832;16.838;2023-04-15T09:30:15;9.20;93.90
32366;DHT22;18837;46.832;16.838;2023-04-15T09:32:57;9.30;94.00
32366;DHT22;18837;46.832;16.838;2023-04-15T09:35:33;9.30;94.90
32366;DHT22;18837;46.832;16.838;2023-04-15T09:38:25;9.30;93.90
32366;DHT22;18837;46.832;16.838;2023-04-15T09:41:16;9.40;94.30
32366;DHT22;18837;46.832;16.838;2023-04-15T09:43:44;9.40;93.80
32366;DHT22;18837;46.832;16.838;2023-04-15T09:46:10;9.40;93.80
32366;DHT22;18837;46.832;16.838;2023-04-15T09:48:36;9.50;94.20
32366;DHT22;18837;46.832;16.838;2023-04-15T09:51:02;9.50;94.70
32366;DHT22;18837;46.832;16.838;2023-04-15T09:53:28;9.60;94.50
32366;DHT22;18837;46.832;16.838;2023-04-15T09:55:54;9.60;94.00
32366;DHT22;18837;46.832;16.838;2023-04-15T10:00:49;9.60;94.20
32366;DHT22;18837;46.832;16.838;2023-04-15T10:03:35;9.70;94.00
32366;DHT22;18837;46.832;16.838;2023-04-15T10:06:02;9.70;94.10
32366;DHT22;18837;46.832;16.838;2023-04-15T10:08:30;9.70;94.10
32366;DHT22;18837;46.832;16.838;2023-04-15T10:11:17;9.80;93.80
32366;DHT22;18837;46.832;16.838;2023-04-15T10:14:08;9.80;94.20
32366;DHT22;18837;46.832;16.838;2023-04-15T10:16:35;9.90;94.30
32366;DHT22;18837;46.832;16.838;2023-04-15T10:19:05;9.90;94.10
32366;DHT22;18837;46.832;16.838;2023-04-15T10:21:32;9.90;94.10
32366;DHT22;18837;46.832;16.838;2023-04-15T10:23:59;10.00;94.30
32366;DHT22;18837;46.832;16.838;2023-04-15T10:26:26;10.00;94.10
32366;DHT22;18837;46.832;16.838;2023-04-15T10:29:11;10.10;94.20
32366;DHT22;18837;46.832;16.838;2023-04-15T10:31:37;10.10;93.90
32366;DHT22;18837;46.832;16.838;2023-04-15T10:34:05;10.20;93.90
32366;DHT22;18837;46.832;16.838;2023-04-15T10:36:32;10.20;94.30
32366;DHT22;18837;46.832;16.838;2023-04-15T10:38:57;10.30;94.50
32366;DHT22;18837;46.832;16.838;2023-04-15T10:41:25;10.30;94.40
32366;DHT22;18837;46.832;16.838;2023-04-15T10:46:50;10.40;94.60
32366;DHT22;18837;46.832;16.838;2023-04-15T10:52:33;10.50;94.10
32366;DHT22;18837;46.832;16.838;2023-04-15T10:55:11;10.60;93.60
32366;DHT22;18837;46.832;16.838;2023-04-15T10:57:39;10.60;93.60
32366;DHT22;18837;46.832;16.838;2023-04-15T11:00:15;10.70;93.40
32366;DHT22;18837;46.832;16.838;2023-04-15T11:02:56;10.70;94.20
32366;DHT22;18837;46.832;16.838;2023-04-15T11:05:48;10.80;93.70
32366;DHT22;18837;46.832;16.838;2023-04-15T11:08:14;10.80;93.70
32366;DHT22;18837;46.832;16.838;2023-04-15T11:15:42;10.90;92.90
32366;DHT22;18837;46.832;16.838;2023-04-15T11:21:04;10.90;92.80
32366;DHT22;18837;46.832;16.838;2023-04-15T11:23:48;10.90;93.10
32366;DHT22;18837;46.832;16.838;2023-04-15T11:26:15;10.90;92.40
32366;DHT22;18837;46.832;16.838;2023-04-15T11:28:44;10.90;92.30
32366;DHT22;18837;46.832;16.838;2023-04-15T11:31:13;10.90;92.00
32366;DHT22;18837;46.832;16.838;2023-04-15T11:33:58;10.90;91.50
32366;DHT22;18837;46.832;16.838;2023-04-15T11:36:25;10.90;92.70
32366;DHT22;18837;46.832;16.838;2023-04-15T11:38:59;10.90;91.60
32366;DHT22;18837;46.832;16.838;2023-04-15T11:41:25;10.90;91.80
32366;DHT22;18837;46.832;16.838;2023-04-15T11:43:51;10.90;92.50
32366;DHT22;18837;46.832;16.838;2023-04-15T11:46:17;10.90;91.90
32366;DHT22;18837;46.832;16.838;2023-04-15T11:48:44;10.90;91.80
32366;DHT22;18837;46.832;16.838;2023-04-15T11:51:12;10.90;91.90
32366;DHT22;18837;46.832;16.838;2023-04-15T11:53:56;11.00;91.70
32366;DHT22;18837;46.832;16.838;2023-04-15T11:56:40;11.00;92.60
32366;DHT22;18837;46.832;16.838;2023-04-15T11:59:11;11.00;92.40
32366;DHT22;18837;46.832;16.838;2023-04-15T12:01:38;11.10;92.00
32366;DHT22;18837;46.832;16.838;2023-04-15T12:04:12;11.10;91.90
32366;DHT22;18837;46.832;16.838;2023-04-15T12:06:38;11.10;91.90
32366;DHT22;18837;46.832;16.838;2023-04-15T12:09:14;11.10;92.20
32366;DHT22;18837;46.832;16.838;2023-04-15T12:11:50;11.20;93.60
32366;DHT22;18837;46.832;16.838;2023-04-15T12:14:31;11.20;92.40
32366;DHT22;18837;46.832;16.838;2023-04-15T12:17:05;11.30;92.10
32366;DHT22;18837;46.832;16.838;2023-04-15T12:19:39;11.30;92.60
32366;DHT22;18837;46.832;16.838;2023-04-15T12:22:13;11.30;92.30
32366;DHT22;18837;46.832;16.838;2023-04-15T12:24:41;11.30;91.30
32366;DHT22;18837;46.832;16.838;2023-04-15T12:27:15;11.30;91.40
32366;DHT22;18837;46.832;16.838;2023-04-15T12:30:17;11.40;91.10
32366;DHT22;18837;46.832;16.838;2023-04-15T12:32:47;11.40;92.40
32366;DHT22;18837;46.832;16.838;2023-04-15T12:35:13;11.40;91.70
32366;DHT22;18837;46.832;16.838;2023-04-15T12:37:39;11.40;91.60
32366;DHT22;18837;46.832;16.838;2023-04-15T12:40:07;11.40;91.90
32366;DHT22;18837;46.832;16.838;2023-04-15T12:42:33;11.40;91.80
32366;DHT22;18837;46.832;16.838;2023-04-15T12:44:59;11.40;91.40
32366;DHT22;18837;46.832;16.838;2023-04-15T12:47:35;11.40;91.70
32366;DHT22;18837;46.832;16.838;2023-04-15T12:50:01;11.40;91.50
32366;DHT22;18837;46.832;16.838;2023-04-15T12:52:26;11.40;91.40
32366;DHT22;18837;46.832;16.838;2023-04-15T12:54:52;11.40;91.60
32366;DHT22;18837;46.832;16.838;2023-04-15T12:57:21;11.40;92.30
32366;DHT22;18837;46.832;16.838;2023-04-15T12:59:47;11.40;91.50
32366;DHT22;18837;46.832;16.838;2023-04-15T13:02:13;11.40;91.70
32366;DHT22;18837;46.832;16.838;2023-04-15T13:04:50;11.40;91.40
32366;DHT22;18837;46.832;16.838;2023-04-15T13:07:28;11.50;91.10
32366;DHT22;18837;46.832;16.838;2023-04-15T13:09:54;11.50;91.50
32366;DHT22;18837;46.832;16.838;2023-04-15T13:12:21;11.50;91.40
32366;DHT22;18837;46.832;16.838;2023-04-15T13:14:47;11.50;91.20
32366;DHT22;18837;46.832;16.838;2023-04-15T13:17:12;11.50;91.20
32366;DHT22;18837;46.832;16.838;2023-04-15T13:19:38;11.50;91.20
32366;DHT22;18837;46.832;16.838;2023-04-15T13:22:09;11.60;91.20
32366;DHT22;18837;46.832;16.838;2023-04-15T13:24:36;11.50;91.00
32366;DHT22;18837;46.832;16.838;2023-04-15T13:27:01;11.50;91.50
32366;DHT22;18837;46.832;16.838;2023-04-15T13:29:28;11.60;91.60
32366;DHT22;18837;46.832;16.838;2023-04-15T13:31:54;11.60;91.50
32366;DHT22;18837;46.832;16.838;2023-04-15T13:34:21;11.60;91.30
32366;DHT22;18837;46.832;16.838;2023-04-15T13:36:46;11.60;91.80
32366;DHT22;18837;46.832;16.838;2023-04-15T13:39:24;11.60;91.70
32366;DHT22;18837;46.832;16.838;2023-04-15T13:42:04;11.60;92.00
32366;DHT22;18837;46.832;16.838;2023-04-15T13:44:30;11.60;92.10
32366;DHT22;18837;46.832;16.838;2023-04-15T13:46:56;11.60;91.60
32366;DHT22;18837;46.832;16.838;2023-04-15T13:49:22;11.60;91.50
32366;DHT22;18837;46.832;16.838;2023-04-15T13:51:48;11.60;91.50
32366;DHT22;18837;46.832;16.838;2023-04-15T13:54:13;11.60;91.10
32366;DHT22;18837;46.832;16.838;2023-04-15T13:56:42;11.60;91.00
32366;DHT22;18837;46.832;16.838;2023-04-15T13:59:08;11.60;90.80
32366;DHT22;18837;46.832;16.838;2023-04-15T14:01:34;11.60;91.30
32366;DHT22;18837;46.832;16.838;2023-04-15T14:04:00;11.60;92.20
32366;DHT22;18837;46.832;16.838;2023-04-15T14:06:26;11.70;93.20
32366;DHT22;18837;46.832;16.838;2023-04-15T14:08:54;11.70;92.20
32366;DHT22;18837;46.832;16.838;2023-04-15T14:11:20;11.70;92.10
32366;DHT22;18837;46.832;16.838;2023-04-15T14:13:58;11.70;93.70
32366;DHT22;18837;46.832;16.838;2023-04-15T14:16:39;11.70;93.60
32366;DHT22;18837;46.832;16.838;2023-04-15T14:19:05;11.70;93.80
32366;DHT22;18837;46.832;16.838;2023-04-15T14:21:30;11.70;94.10
32366;DHT22;18837;46.832;16.838;2023-04-15T14:23:57;11.70;93.70
32366;DHT22;18837;46.832;16.838;2023-04-15T14:26:23;11.70;93.70
32366;DHT22;18837;46.832;16.838;2023-04-15T14:28:49;11.70;94.00
32366;DHT22;18837;46.832;16.838;2023-04-15T14:31:21;11.70;94.30
32366;DHT22;18837;46.832;16.838;2023-04-15T14:33:47;11.70;94.10
32366;DHT22;18837;46.832;16.838;2023-04-15T14:36:12;11.70;94.20
32366;DHT22;18837;46.832;16.838;2023-04-15T14:38:38;11.80;94.20
32366;DHT22;18837;46.832;16.838;2023-04-15T14:41:08;11.70;94.30
32366;DHT22;18837;46.832;16.838;2023-04-15T14:43:35;11.70;94.00
32366;DHT22;18837;46.832;16.838;2023-04-15T14:46:01;11.70;94.00
32366;DHT22;18837;46.832;16.838;2023-04-15T14:48:45;11.70;94.10
32366;DHT22;18837;46.832;16.838;2023-04-15T14:51:26;11.70;93.80
32366;DHT22;18837;46.832;16.838;2023-04-15T14:53:52;11.70;93.80
32366;DHT22;18837;46.832;16.838;2023-04-15T14:56:18;11.70;94.10
32366;DHT22;18837;46.832;16.838;2023-04-15T14:58:43;11.70;94.10
32366;DHT22;18837;46.832;16.838;2023-04-15T15:01:09;11.60;94.20
32366;DHT22;18837;46.832;16.838;2023-04-15T15:03:35;11.60;94.20
32366;DHT22;18837;46.832;16.838;2023-04-15T15:06:06;11.60;94.30
32366;DHT22;18837;46.832;16.838;2023-04-15T15:08:33;11.60;94.00
32366;DHT22;18837;46.832;16.838;2023-04-15T15:10:59;11.60;94.20
32366;DHT22;18837;46.832;16.838;2023-04-15T15:13:25;11.60;94.10
32366;DHT22;18837;46.832;16.838;2023-04-15T15:15:51;11.60;94.40
32366;DHT22;18837;46.832;16.838;2023-04-15T15:18:17;11.60;94.00
32366;DHT22;18837;46.832;16.838;2023-04-15T15:20:55;11.60;94.10
32366;DHT22;18837;46.832;16.838;2023-04-15T15:23:40;11.60;94.00
32366;DHT22;18837;46.832;16.838;2023-04-15T15:26:08;11.60;94.00
32366;DHT22;18837;46.832;16.838;2023-04-15T15:28:34;11.60;94.10
32366;DHT22;18837;46.832;16.838;2023-04-15T15:31:00;11.50;94.40
32366;DHT22;18837;46.832;16.838;2023-04-15T15:33:26;11.50;94.30
32366;DHT22;18837;46.832;16.838;2023-04-15T15:35:52;11.50;94.20
32366;DHT22;18837;46.832;16.838;2023-04-15T15:38:17;11.60;94.20
32366;DHT22;18837;46.832;16.838;2023-04-15T15:40:48;11.50;94.10
32366;DHT22;18837;46.832;16.838;2023-04-15T15:43:14;11.50;94.00
32366;DHT22;18837;46.832;16.838;2023-04-15T15:45:40;11.50;94.20
32366;DHT22;18837;46.832;16.838;2023-04-15T15:48:06;11.50;94.10
32366;DHT22;18837;46.832;16.838;2023-04-15T15:50:32;11.50;94.20
32366;DHT22;18837;46.832;16.838;2023-04-15T15:52:58;11.50;94.10
32366;DHT22;18837;46.832;16.838;2023-04-15T15:55:30;11.50;94.20